Time;durP1;ratioP1;P1;durP2;ratioP2;P2;SDS_P1;SDS_P2;PMS_P1;PMS_P2;Temp;Humidity;BMP_temperature;BMP_pressure;BME280_temperature;BME280_humidity;BME280_pressure;Samples;Min_cycle;Max_cycle;Signal;HPM_P1;HPM_P2
2021/03/27 00:02:14;;;;;;;298.75;31.12;;;;;;;1.71;85.37;101274.17;1784986;79;21014;-42
2021/03/27 00:04:59;;;;;;;204.87;26.60;;;;;;;1.77;85.26;101273.90;1757111;80;21469;-43
2021/03/27 00:08:06;;;;;;;262.12;30.80;;;;;;;1.80;84.82;101263.38;1784927;79;20966;-41
2021/03/27 00:10:49;;;;;;;197.35;26.80;;;;;;;1.82;84.55;101269.40;1784955;79;20962;-42
2021/03/27 00:13:37;;;;;;;295.27;30.97;;;;;;;1.86;84.51;101267.78;1784859;80;21037;-41
2021/03/27 00:16:18;;;;;;;346.18;36.58;;;;;;;1.91;84.28;101275.20;1756410;80;21002;-42
2021/03/27 00:19:04;;;;;;;450.92;42.03;;;;;;;1.95;83.96;101267.20;1784896;80;21026;-41
2021/03/27 00:21:57;;;;;;;;;;;;;;;1.97;83.72;101270.27;1787677;80;21511;-43
2021/03/27 00:24:39;;;;;;;255.55;29.45;;;;;;;2.02;83.33;101275.50;1785074;80;20182;-43
2021/03/27 00:27:17;;;;;;;277.95;32.38;;;;;;;2.04;83.00;101272.61;1782356;79;21567;-42
2021/03/27 00:29:49;;;;;;;297.27;33.20;;;;;;;2.09;82.77;101276.55;1784868;80;21005;-42
2021/03/27 00:32:21;;;;;;;275.50;32.58;;;;;;;2.11;82.54;101266.84;1796664;79;20942;-42
2021/03/27 00:34:54;;;;;;;270.85;27.27;;;;;;;2.15;82.31;101278.03;1773030;79;21570;-41
2021/03/27 00:37:25;;;;;;;247.65;28.57;;;;;;;2.17;82.06;101276.39;1799508;79;20899;-42
2021/03/27 00:40:12;;;;;;;254.00;28.62;;;;;;;2.23;81.50;101274.40;1748554;79;21482;-42
2021/03/27 00:42:50;;;;;;;70.17;18.35;;;;;;;2.26;80.96;101274.09;1799462;79;21009;-41
2021/03/27 00:46:59;;;;;;;131.00;22.67;;;;;;;2.38;80.59;101267.58;1815922;79;22572;-42
2021/03/27 00:49:38;;;;;;;94.55;20.15;;;;;;;2.34;80.43;101275.98;1784008;80;20990;-42
2021/03/27 00:52:09;;;;;;;60.50;18.02;;;;;;;2.35;80.38;101275.16;1758701;80;21374;-43
2021/03/27 00:54:46;;;;;;;66.20;19.65;;;;;;;2.33;80.26;101275.53;1789008;80;20915;-42
2021/03/27 00:57:27;;;;;;;113.62;19.82;;;;;;;2.33;80.24;101274.26;1789062;80;21563;-42
2021/03/27 01:00:36;;;;;;;243.05;29.42;;;;;;;2.32;80.17;101277.64;1788927;80;21030;-43
2021/03/27 01:03:40;;;;;;;218.12;26.70;;;;;;;2.30;80.09;101278.89;1684987;84;20995;-40
2021/03/27 01:06:20;;;;;;;92.25;17.60;;;;;;;2.30;79.92;101274.63;1773730;80;21279;-42
2021/03/27 01:08:54;;;;;;;47.50;16.50;;;;;;;2.31;79.73;101272.95;1760990;80;21014;-42
2021/03/27 01:11:46;;;;;;;85.90;16.85;;;;;;;2.32;79.67;101275.97;1784896;80;21026;-43
2021/03/27 01:14:20;;;;;;;209.75;25.82;;;;;;;2.32;79.64;101276.36;1788547;80;20950;-43
2021/03/27 01:16:54;;;;;;;382.90;31.23;;;;;;;2.32;79.62;101268.70;1788919;80;21023;-43
2021/03/27 01:19:32;;;;;;;143.75;21.15;;;;;;;2.34;79.56;101274.31;1759182;80;21073;-41
2021/03/27 01:22:04;;;;;;;173.90;22.67;;;;;;;2.35;79.47;101272.61;1789003;80;21006;-41
2021/03/27 01:24:31;;;;;;;195.40;25.32;;;;;;;2.35;79.32;101268.77;1788924;80;21026;-42
2021/03/27 01:27:07;;;;;;;220.42;25.60;;;;;;;2.34;79.26;101266.65;1788883;80;21022;-41
2021/03/27 01:29:40;;;;;;;189.62;24.65;;;;;;;2.37;79.23;101264.58;1789165;80;27085;-42
2021/03/27 01:32:18;;;;;;;172.87;20.70;;;;;;;2.39;79.22;101264.20;1786956;80;21382;-41
2021/03/27 01:34:51;;;;;;;57.73;15.70;;;;;;;2.41;79.11;101269.83;1788786;80;21010;-42
2021/03/27 01:37:30;;;;;;;38.28;15.05;;;;;;;2.38;79.12;101253.13;1788456;80;21018;-41
2021/03/27 01:40:08;;;;;;;57.35;15.60;;;;;;;2.37;79.17;101261.63;1788950;80;21436;-43
2021/03/27 01:42:47;;;;;;;116.17;19.00;;;;;;;2.38;79.23;101265.03;1788200;80;21002;-42
2021/03/27 01:45:46;;;;;;;187.95;24.47;;;;;;;2.37;79.33;101262.02;1780547;80;21385;-42
2021/03/27 01:48:40;;;;;;;30.08;14.58;;;;;;;2.34;79.57;101270.48;1700163;84;21019;-42
2021/03/27 01:51:55;;;;;;;76.70;16.62;;;;;;;2.33;79.75;101273.86;1702814;83;21521;-41
2021/03/27 01:54:35;;;;;;;38.10;12.98;;;;;;;2.33;79.77;101275.14;1768834;80;21639;-41
2021/03/27 01:57:20;;;;;;;53.38;14.33;;;;;;;2.34;79.76;101284.94;1702473;84;21015;-40
2021/03/27 02:00:01;;;;;;;58.33;15.08;;;;;;;2.35;79.72;101276.44;1702253;84;21436;-42
2021/03/27 02:02:42;;;;;;;33.55;13.48;;;;;;;2.34;79.63;101280.70;1700870;84;20929;-42
2021/03/27 02:05:17;;;;;;;26.60;12.65;;;;;;;2.36;79.55;101292.23;1768168;81;21023;-43
2021/03/27 02:08:13;;;;;;;117.37;19.65;;;;;;;2.37;79.56;101285.90;1702106;84;21063;-42
2021/03/27 02:11:02;;;;;;;111.40;17.17;;;;;;;2.38;79.56;101286.75;1768284;81;20936;-42
2021/03/27 02:13:41;;;;;;;30.15;13.93;;;;;;;2.37;79.58;101283.73;1768237;81;21375;-43
2021/03/27 02:16:35;;;;;;;51.05;14.60;;;;;;;2.38;79.47;101291.47;1697350;84;20953;-44
2021/03/27 02:19:54;;;;;;;53.80;15.00;;;;;;;2.39;79.50;101290.64;1702224;84;21016;-41
2021/03/27 02:22:43;;;;;;;217.60;26.57;;;;;;;2.42;79.48;101289.88;1662592;83;21652;-40
2021/03/27 02:25:32;;;;;;;123.15;20.35;;;;;;;2.44;79.54;101286.95;1702236;84;21134;-43
2021/03/27 02:28:39;;;;;;;104.20;19.30;;;;;;;2.45;79.57;101287.41;1702277;84;21356;-42
2021/03/27 02:31:20;;;;;;;38.58;15.65;;;;;;;2.47;79.47;101285.75;1768211;81;21059;-42
2021/03/27 02:34:11;;;;;;;39.73;15.20;;;;;;;2.51;79.42;101290.13;1702270;84;21514;-42
2021/03/27 02:36:59;;;;;;;88.10;20.23;;;;;;;2.52;79.33;101293.13;1673296;84;21063;-42
2021/03/27 02:39:35;;;;;;;74.87;17.25;;;;;;;2.53;79.35;101291.03;1768238;81;20995;-43
2021/03/27 02:42:34;;;;;;;59.03;16.60;;;;;;;2.54;79.31;101290.20;1702251;84;21656;-42
2021/03/27 02:45:18;;;;;;;78.55;18.10;;;;;;;2.55;79.23;101290.66;1768068;81;21054;-42
2021/03/27 02:48:21;;;;;;;107.00;21.45;;;;;;;2.58;79.13;101298.41;1768197;81;21067;-42
2021/03/27 02:51:22;;;;;;;189.43;24.95;;;;;;;2.58;79.24;101297.56;1745675;81;21020;-43
2021/03/27 02:54:13;;;;;;;82.30;19.52;;;;;;;2.59;79.25;101296.30;1768276;81;21565;-43
2021/03/27 02:56:50;;;;;;;92.55;20.50;;;;;;;2.60;79.05;101293.35;1681567;84;21496;-42
2021/03/27 02:59:45;;;;;;;113.12;22.75;;;;;;;2.59;79.09;101300.56;1768183;81;21058;-43
2021/03/27 03:02:41;;;;;;;148.75;23.75;;;;;;;2.60;79.07;101293.35;1767796;81;21035;-41
2021/03/27 03:05:23;;;;;;;41.05;16.35;;;;;;;2.59;79.03;101303.12;1702242;84;20928;-40
2021/03/27 03:08:20;;;;;;;45.92;17.15;;;;;;;2.59;79.03;101306.96;1768198;81;21019;-42
2021/03/27 03:11:03;;;;;;;242.47;26.75;;;;;;;2.61;79.00;101303.16;1702190;84;20964;-43
2021/03/27 03:13:56;;;;;;;171.60;23.02;;;;;;;2.59;79.04;101303.97;1768242;80;21071;-42
2021/03/27 03:16:40;;;;;;;166.25;24.63;;;;;;;2.60;79.08;101301.02;1768165;81;21023;-42
2021/03/27 03:19:21;;;;;;;217.37;27.25;;;;;;;2.58;79.11;101307.36;1702246;84;21509;-43
2021/03/27 03:22:19;;;;;;;160.60;24.20;;;;;;;2.57;79.19;101306.91;1768182;81;21039;-42
2021/03/27 03:24:50;;;;;;;117.03;19.15;;;;;;;2.57;79.19;101310.73;1768181;81;21364;-42
2021/03/27 03:27:24;;;;;;;123.38;21.90;;;;;;;2.56;79.19;101309.00;1702122;84;21134;-41
2021/03/27 03:30:21;;;;;;;92.27;18.50;;;;;;;2.55;79.25;101312.81;1768166;81;21334;-41
2021/03/27 03:33:29;;;;;;;54.27;17.65;;;;;;;2.54;79.20;101311.94;1702208;84;21071;-42
2021/03/27 03:36:13;;;;;;;99.58;20.37;;;;;;;2.52;79.22;101315.25;1702196;84;21039;-42
2021/03/27 03:39:16;;;;;;;105.00;20.57;;;;;;;2.51;79.39;101325.91;1679718;84;21405;-43
2021/03/27 03:41:58;;;;;;;138.37;21.42;;;;;;;2.52;79.64;101319.09;1767887;81;21024;-42
2021/03/27 03:44:43;;;;;;;134.00;23.32;;;;;;;2.53;79.74;101321.70;1701785;84;21039;-41
2021/03/27 03:47:35;;;;;;;136.45;23.73;;;;;;;2.52;79.91;101318.69;1767299;81;21516;-43
2021/03/27 03:50:28;;;;;;;169.07;24.47;;;;;;;2.53;80.01;101322.13;1702157;84;21011;-41
2021/03/27 03:53:25;;;;;;;176.82;23.90;;;;;;;2.53;80.06;101318.30;1768333;81;21354;-42
2021/03/27 03:56:14;;;;;;;160.07;27.17;;;;;;;2.56;80.17;101325.63;1768058;81;21059;-43
2021/03/27 03:59:10;;;;;;;77.58;23.18;;;;;;;2.58;80.35;101329.09;1768126;81;20959;-43
2021/03/27 04:02:10;;;;;;;208.95;31.10;;;;;;;2.59;80.50;101336.36;1702110;84;20952;-42
2021/03/27 04:04:55;;;;;;;94.32;22.25;;;;;;;2.58;80.65;101335.48;1682212;84;20976;-42
2021/03/27 04:07:45;;;;;;;246.28;30.30;;;;;;;2.61;80.73;101337.66;1701844;84;21319;-41
2021/03/27 04:10:19;;;;;;;86.00;22.13;;;;;;;2.63;80.84;101342.41;1682250;84;21521;-42
2021/03/27 04:13:10;;;;;;;163.20;26.77;;;;;;;2.64;81.07;101338.63;1768419;81;20901;-43
2021/03/27 04:15:54;;;;;;;62.45;22.67;;;;;;;2.66;81.20;101346.36;1702135;84;21102;-43
2021/03/27 04:18:40;;;;;;;86.17;23.07;;;;;;;2.66;81.35;101344.65;1748696;81;21055;-43
2021/03/27 04:21:20;;;;;;;121.25;24.43;;;;;;;2.69;81.41;101347.29;1768235;81;21413;-44
2021/03/27 04:23:57;;;;;;;79.67;23.22;;;;;;;2.72;81.59;101347.38;1679597;84;20969;-44
2021/03/27 04:27:09;;;;;;;125.40;25.40;;;;;;;2.76;81.55;101348.34;1699074;84;20976;-44
2021/03/27 04:29:44;;;;;;;62.30;22.58;;;;;;;2.79;81.70;101347.14;1702119;84;20952;-43
2021/03/27 04:32:37;;;;;;;60.73;21.05;;;;;;;2.82;81.80;101343.81;1702176;84;21624;-43
2021/03/27 04:35:56;;;;;;;158.12;26.95;;;;;;;2.86;81.89;101347.76;1768143;81;21333;-42
2021/03/27 04:38:36;;;;;;;46.37;22.02;;;;;;;2.90;81.94;101349.11;1702111;84;21039;-42
2021/03/27 04:41:29;;;;;;;174.42;28.77;;;;;;;2.95;82.10;101351.41;1702100;84;20992;-44
2021/03/27 04:44:33;;;;;;;119.60;25.57;;;;;;;2.95;82.15;101357.81;1768081;81;21039;-43
2021/03/27 04:47:31;;;;;;;46.23;23.27;;;;;;;2.96;82.30;101355.70;1771995;80;21074;-42
2021/03/27 04:50:23;;;;;;;113.77;26.77;;;;;;;2.98;82.29;101366.84;1776368;80;21283;-44
2021/03/27 04:53:15;;;;;;;82.97;25.15;;;;;;;3.00;82.45;101369.03;1709966;84;21078;-42
2021/03/27 04:56:03;;;;;;;51.88;24.45;;;;;;;3.02;82.49;101366.09;1776324;80;21062;-44
2021/03/27 04:58:54;;;;;;;90.65;25.68;;;;;;;3.03;82.57;101369.11;1709976;84;21039;-43
2021/03/27 05:01:53;;;;;;;62.10;25.57;;;;;;;3.04;82.69;101367.00;1776328;80;20964;-43
2021/03/27 05:04:51;;;;;;;72.37;25.55;;;;;;;3.08;82.71;101377.77;1710020;84;21394;-43
2021/03/27 05:07:52;;;;;;;45.48;24.65;;;;;;;3.12;82.77;101378.30;1847550;76;23307;-41
2021/03/27 05:10:41;;;;;;;55.10;25.55;;;;;;;3.12;82.79;101375.73;1817909;79;21543;-43
2021/03/27 05:13:23;;;;;;;68.02;24.40;;;;;;;3.17;82.83;101379.71;1817855;79;21626;-42
2021/03/27 05:16:16;;;;;;;64.77;25.77;;;;;;;3.21;82.78;101380.67;1817854;79;20990;-43
2021/03/27 05:19:22;;;;;;;46.90;23.45;;;;;;;3.25;82.84;101379.92;1817858;79;20922;-41
2021/03/27 05:22:04;;;;;;;45.00;19.50;;;;;;;3.31;82.81;101380.08;1817928;79;21084;-42
2021/03/27 05:25:01;;;;;;;49.50;25.32;;;;;;;3.36;82.76;101386.17;1817890;77;20950;-42
2021/03/27 05:28:04;;;;;;;54.67;25.17;;;;;;;3.39;82.68;101391.38;1817862;78;21345;-44
2021/03/27 05:30:57;;;;;;;53.65;24.35;;;;;;;3.45;82.55;101385.16;1817828;79;21556;-41
2021/03/27 05:33:37;;;;;;;58.87;25.70;;;;;;;3.51;82.45;101388.27;1817752;79;20994;-43
2021/03/27 05:36:25;;;;;;;48.05;23.95;;;;;;;3.57;82.41;101387.16;1817791;79;21096;-42
2021/03/27 05:39:16;;;;;;;63.98;27.20;;;;;;;3.61;82.35;101389.80;1817814;79;21030;-42
2021/03/27 05:42:29;;;;;;;47.25;25.62;;;;;;;3.66;82.30;101387.78;1817814;78;21188;-43
2021/03/27 05:45:14;;;;;;;44.05;25.88;;;;;;;3.72;82.17;101394.77;1791299;79;21002;-42
2021/03/27 05:48:34;;;;;;;46.08;25.75;;;;;;;3.78;82.07;101394.05;1741158;80;21009;-43
2021/03/27 05:51:41;;;;;;;55.52;27.32;;;;;;;3.79;81.95;101399.23;1785232;80;21009;-43
2021/03/27 05:54:23;;;;;;;52.55;27.82;;;;;;;3.78;81.74;101402.59;1785767;80;21029;-42
2021/03/27 05:57:19;;;;;;;55.58;27.85;;;;;;;3.76;81.59;101405.96;1785584;80;21272;-42
2021/03/27 06:00:12;;;;;;;52.05;27.02;;;;;;;3.78;81.58;101398.75;1747806;80;21053;-42
2021/03/27 06:03:31;;;;;;;48.83;25.40;;;;;;;3.88;81.78;101405.85;1785493;80;21010;-44
2021/03/27 06:06:31;;;;;;;52.00;27.37;;;;;;;4.02;81.83;101403.62;1785388;79;21005;-44
2021/03/27 06:09:29;;;;;;;57.08;29.30;;;;;;;4.22;81.53;101407.06;1785543;80;21487;-44
2021/03/27 06:12:20;;;;;;;55.52;29.02;;;;;;;4.40;81.38;101409.58;1785480;79;21061;-44
2021/03/27 06:15:41;;;;;;;50.98;27.13;;;;;;;4.62;81.08;101403.64;1785436;80;21045;-44
2021/03/27 06:19:08;;;;;;;49.75;27.65;;;;;;;4.82;79.59;101399.80;1785089;80;20978;-43
2021/03/27 06:22:16;;;;;;;53.83;26.77;;;;;;;5.03;78.93;101412.19;1784971;80;20927;-41
2021/03/27 06:25:18;;;;;;;44.35;25.88;;;;;;;5.25;77.85;101412.60;1785001;80;20887;-42
2021/03/27 06:28:17;;;;;;;46.40;26.07;;;;;;;5.48;77.30;101412.59;1784955;80;21145;-42
2021/03/27 10:20:50;;;;;;;6.78;4.65;;;;;;;11.69;50.61;101417.59;1853407;77;22599;-42
2021/03/27 10:23:38;;;;;;;30.35;13.53;;;;;;;11.61;50.05;101416.35;1788179;79;21055;-43
2021/03/27 10:26:26;;;;;;;10.30;5.42;;;;;;;11.63;52.28;101422.39;1764391;81;21349;-44
2021/03/27 10:29:05;;;;;;;34.63;18.05;;;;;;;11.59;49.57;101427.17;1790852;80;21697;-43
2021/03/27 10:31:44;;;;;;;31.75;19.12;;;;;;;11.82;52.30;101439.11;1789959;80;21022;-42
2021/03/27 10:34:29;;;;;;;37.58;19.05;;;;;;;11.52;54.58;101432.83;1771077;80;21038;-43
2021/03/27 10:37:10;;;;;;;28.75;18.37;;;;;;;11.62;54.72;101426.73;1790906;80;20995;-45
2021/03/27 10:44:59;;;;;;;38.48;20.37;;;;;;;12.01;53.83;101417.37;1800815;77;22872;-43
2021/03/27 10:47:44;;;;;;;36.30;19.07;;;;;;;11.78;54.72;101416.22;1710116;83;21678;-44
2021/03/27 10:50:27;;;;;;;9.35;6.35;;;;;;;11.68;55.27;101418.02;1682070;84;22115;-43
2021/03/27 10:53:22;;;;;;;8.90;5.10;;;;;;;11.84;49.86;101410.13;1695343;83;21003;-43
2021/03/27 10:56:13;;;;;;;10.50;6.90;;;;;;;12.05;49.34;101412.56;1720217;80;20966;-43
2021/03/27 10:59:07;;;;;;;7.50;4.60;;;;;;;12.44;47.89;101417.37;1699387;82;21058;-43
2021/03/27 11:01:58;;;;;;;6.87;4.12;;;;;;;12.71;45.99;101414.45;1686744;83;21035;-42
2021/03/27 11:05:06;;;;;;;6.30;4.62;;;;;;;12.47;46.18;101412.14;1712028;82;21211;-44
2021/03/27 11:08:17;;;;;;;7.60;5.07;;;;;;;12.18;46.62;101425.41;1695376;82;21296;-43
2021/03/27 11:11:16;;;;;;;18.27;11.45;;;;;;;12.31;47.57;101414.05;1763468;80;21602;-43
2021/03/27 11:14:29;;;;;;;29.30;14.35;;;;;;;13.03;47.09;101415.35;1762462;80;21062;-42
2021/03/27 11:17:53;;;;;;;28.05;16.82;;;;;;;13.04;49.68;101417.07;1776317;80;21006;-43
2021/03/27 11:20:39;;;;;;;26.45;16.05;;;;;;;12.86;50.65;101411.68;1768459;80;21243;-44
2021/03/27 11:23:34;;;;;;;41.65;17.23;;;;;;;12.66;51.50;101417.13;1766486;80;21011;-43
2021/03/27 11:35:00;;;;;;;39.35;16.55;;;;;;;10.81;57.17;101439.67;1834896;75;22407;-43
2021/03/27 11:37:54;;;;;;;27.37;16.07;;;;;;;10.60;57.64;101440.17;1794679;78;21002;-43
2021/03/27 11:40:47;;;;;;;23.15;14.15;;;;;;;10.48;57.95;101441.06;1789811;78;21504;-44
2021/03/27 11:43:39;;;;;;;32.33;16.95;;;;;;;10.26;58.59;101444.98;1818394;77;21573;-43
2021/03/27 11:46:40;;;;;;;27.30;17.20;;;;;;;10.08;59.63;101442.39;1798145;78;20958;-44
2021/03/27 11:49:37;;;;;;;58.52;20.75;;;;;;;10.02;60.24;101449.30;1766202;79;21562;-43
2021/03/27 11:52:26;;;;;;;31.33;18.55;;;;;;;9.90;60.64;101445.41;1820067;76;21049;-43
2021/03/27 11:55:30;;;;;;;30.05;18.27;;;;;;;9.81;60.74;101448.84;1806402;77;21773;-42
2021/03/27 11:58:07;;;;;;;31.57;16.85;;;;;;;9.88;60.24;101448.42;1730931;81;21112;-43
2021/03/27 12:01:03;;;;;;;33.00;18.75;;;;;;;9.87;60.85;101446.29;1813586;77;21101;-43
2021/03/27 12:03:54;;;;;;;31.77;18.12;;;;;;;10.01;60.19;101449.29;1781019;79;20936;-42
2021/03/27 12:06:48;;;;;;;35.58;17.82;;;;;;;10.24;60.19;101451.88;1738967;80;21091;-45
2021/03/27 12:09:45;;;;;;;26.30;17.77;;;;;;;10.48;58.51;101451.00;1760301;79;21260;-43
2021/03/27 12:12:38;;;;;;;38.17;19.57;;;;;;;10.29;58.83;101446.67;1786710;79;21530;-43
2021/03/27 12:15:26;;;;;;;31.87;19.23;;;;;;;10.21;59.83;101448.85;1778794;79;20962;-43
2021/03/27 12:18:19;;;;;;;31.23;18.87;;;;;;;10.12;59.45;101450.58;1780130;79;21237;-43
2021/03/27 12:21:11;;;;;;;27.45;17.50;;;;;;;10.04;59.46;101454.45;1818698;77;21022;-42
2021/03/27 12:23:48;;;;;;;31.25;17.35;;;;;;;10.02;60.04;101457.48;1782096;77;21364;-43
2021/03/27 12:26:32;;;;;;;29.18;17.70;;;;;;;10.11;59.61;101456.62;1750125;80;21163;-44
2021/03/27 12:29:22;;;;;;;40.20;18.62;;;;;;;10.12;59.71;101451.88;1733161;81;21006;-43
2021/03/27 12:32:16;;;;;;;30.88;17.60;;;;;;;10.18;59.19;101457.91;1754323;81;21167;-44
2021/03/27 12:35:34;;;;;;;30.62;17.07;;;;;;;10.23;58.95;101454.04;1785864;78;21085;-44
2021/03/27 12:38:19;;;;;;;33.78;17.42;;;;;;;10.28;58.77;101460.06;1780142;79;21372;-44
2021/03/27 12:57:58;;;;;;;22.17;12.58;;;;;;;10.71;55.33;101468.20;1808578;78;24048;-43
2021/03/27 13:00:48;;;;;;;20.75;12.63;;;;;;;10.52;55.71;101451.86;1705622;83;20971;-44
2021/03/27 13:03:44;;;;;;;23.22;13.93;;;;;;;10.31;56.80;101465.65;1718621;83;22260;-45
2021/03/27 13:06:44;;;;;;;;;;;;;;;10.20;57.29;101457.89;1695701;83;20965;-43
2021/03/27 13:09:30;;;;;;;23.75;12.37;;;;;;;10.09;56.95;101465.66;1746893;81;20130;-42
2021/03/27 13:12:25;;;;;;;26.87;13.32;;;;;;;9.92;57.95;101463.95;1741275;81;21006;-44
2021/03/27 13:15:09;;;;;;;27.13;13.03;;;;;;;9.84;58.56;101459.64;1713629;82;21127;-43
2021/03/27 13:17:55;;;;;;;21.02;12.73;;;;;;;9.76;59.19;101460.50;1715688;83;21393;-43
2021/03/27 13:20:51;;;;;;;27.45;12.82;;;;;;;9.71;59.53;101458.77;1692211;82;21096;-44
2021/03/27 13:23:25;;;;;;;17.92;11.63;;;;;;;9.64;60.11;101455.30;1727542;83;21006;-42
2021/03/27 13:26:02;;;;;;;876.05;98.45;;;;;;;9.64;59.99;101459.18;1698493;84;21634;-44
2021/03/27 13:28:38;;;;;;;365.00;39.60;;;;;;;9.71;60.03;101457.02;1689845;83;20971;-42
2021/03/27 13:31:23;;;;;;;671.72;76.15;;;;;;;9.74;60.18;101457.05;1729366;81;21395;-42
2021/03/27 13:34:20;;;;;;;281.20;25.45;;;;;;;9.84;59.96;101455.76;1752966;81;21658;-42
2021/03/27 13:37:15;;;;;;;82.05;13.48;;;;;;;10.12;59.50;101451.88;1889932;76;22640;-44
2021/03/27 13:39:55;;;;;;;921.00;50.70;;;;;;;10.33;58.65;101450.98;1852474;77;20926;-42
2021/03/27 13:43:07;;;;;;;1023.93;89.92;;;;;;;10.55;57.68;101449.68;1840947;77;21330;-43
2021/03/27 13:46:20;;;;;;;191.28;22.50;;;;;;;11.05;56.16;101453.82;1889910;76;22729;-44
2021/03/27 15:29:21;;;;;;;30.75;13.08;;;;;;;11.40;53.62;101480.44;1708921;81;21042;-44
2021/03/27 15:31:55;;;;;;;45.98;18.75;;;;;;;11.27;54.35;101485.27;1716120;83;21208;-44
2021/03/27 15:34:58;;;;;;;104.07;47.95;;;;;;;11.20;54.75;101489.16;1712194;82;21035;-43
2021/03/27 16:01:37;;;;;;;80.28;25.48;;;;;;;8.38;61.19;101512.83;1802915;79;22143;-43
2021/03/27 16:04:29;;;;;;;180.05;70.30;;;;;;;8.11;62.16;101521.20;1745307;81;21050;-43
2021/03/27 16:07:00;;;;;;;40.58;16.80;;;;;;;7.86;62.74;101521.84;1744402;82;21383;-43
2021/03/27 16:10:00;;;;;;;29.92;13.43;;;;;;;7.60;63.35;101521.56;1744610;82;21112;-43
2021/03/27 16:12:46;;;;;;;30.90;13.45;;;;;;;7.37;63.97;101531.17;1744645;82;21065;-43
2021/03/27 16:15:41;;;;;;;33.15;14.20;;;;;;;6.88;65.50;101528.39;1744573;82;21108;-42
2021/03/27 16:18:45;;;;;;;50.80;24.40;;;;;;;6.88;65.50;101528.39;1744887;82;20963;-42
2021/03/27 16:21:30;;;;;;;471.42;147.35;;;;;;;6.66;66.32;101532.37;1744685;82;21328;-43
2021/03/27 16:24:16;;;;;;;395.37;109.37;;;;;;;6.44;66.79;101536.30;1742558;82;21022;-43
2021/03/27 16:27:20;;;;;;;344.07;107.80;;;;;;;6.23;67.48;101537.71;1726589;82;21606;-43
2021/03/27 16:30:05;;;;;;;96.47;35.83;;;;;;;6.06;68.09;101541.25;1744522;82;21026;-43
2021/03/27 16:33:11;;;;;;;78.62;23.35;;;;;;;5.87;68.80;101544.77;1744777;82;21034;-42
2021/03/27 16:35:58;;;;;;;966.32;59.95;;;;;;;5.71;69.75;101551.73;1744602;82;21251;-43
2021/03/27 16:39:04;;;;;;;1999.90;358.02;;;;;;;5.57;70.59;101548.89;1744517;82;21074;-43
2021/03/27 16:42:03;;;;;;;525.43;37.33;;;;;;;5.46;71.05;101549.55;1744905;82;21035;-43
2021/03/27 16:45:01;;;;;;;1999.90;416.70;;;;;;;5.24;72.25;101555.92;1744684;82;21016;-43
2021/03/27 16:47:49;;;;;;;1999.90;267.93;;;;;;;5.24;72.25;101555.92;1744622;82;21097;-43
2021/03/27 16:50:47;;;;;;;1999.90;255.95;;;;;;;5.10;72.92;101555.63;1744421;82;22096;-43
2021/03/27 16:53:25;;;;;;;1999.90;330.52;;;;;;;5.04;73.26;101556.36;1744535;82;21113;-43
2021/03/27 16:56:17;;;;;;;1999.90;286.73;;;;;;;4.95;73.58;101557.45;1744668;82;21491;-43
2021/03/27 16:59:09;;;;;;;1683.65;173.97;;;;;;;4.86;73.87;101561.95;1744254;82;21040;-42
2021/03/27 17:02:21;;;;;;;1179.20;111.20;;;;;;;4.74;74.28;101564.25;1708999;83;21575;-43
2021/03/27 17:05:12;;;;;;;741.83;66.28;;;;;;;4.63;74.76;101566.95;1709061;83;21215;-43
2021/03/27 17:08:05;;;;;;;958.80;86.08;;;;;;;4.54;75.09;101571.05;1708940;84;21082;-43
2021/03/27 17:10:53;;;;;;;664.25;61.98;;;;;;;4.47;75.30;101575.58;1708929;84;20983;-43
2021/03/27 17:13:40;;;;;;;1999.90;202.97;;;;;;;4.39;75.80;101580.91;1707386;83;21035;-43
2021/03/27 17:16:36;;;;;;;1874.20;152.95;;;;;;;4.33;76.13;101582.05;1687963;84;20995;-43
2021/03/27 17:19:42;;;;;;;813.37;65.60;;;;;;;4.26;76.23;101587.02;1708844;84;22279;-43
2021/03/27 17:22:30;;;;;;;882.95;65.08;;;;;;;4.16;76.42;101583.34;1708315;83;20983;-43
2021/03/27 17:25:21;;;;;;;873.83;69.32;;;;;;;4.06;76.50;101590.35;1708223;83;21046;-43
2021/03/27 17:28:15;;;;;;;376.95;36.17;;;;;;;3.97;76.23;101591.37;1708498;84;21046;-43
2021/03/27 17:31:13;;;;;;;162.50;26.33;;;;;;;3.91;75.80;101591.20;1708502;84;20948;-43
2021/03/27 17:33:51;;;;;;;97.65;22.05;;;;;;;3.88;75.23;101590.70;1708546;83;21366;-42
2021/03/27 17:36:28;;;;;;;92.75;21.45;;;;;;;3.88;74.63;101589.02;1708488;84;21536;-42
2021/03/27 17:39:27;;;;;;;77.40;19.20;;;;;;;3.92;74.17;101593.83;1708473;83;21019;-42
2021/03/27 17:42:38;;;;;;;95.72;21.45;;;;;;;3.94;73.53;101593.84;1708378;84;21042;-42
2021/03/27 17:45:14;;;;;;;112.90;23.47;;;;;;;3.95;73.11;101593.91;1708507;84;20935;-42
2021/03/27 17:48:09;;;;;;;156.63;25.30;;;;;;;3.98;72.85;101598.23;1708517;84;21160;-42
2021/03/27 17:51:00;;;;;;;209.27;27.10;;;;;;;3.94;72.75;101588.33;1708402;84;21078;-42
2021/03/27 17:53:42;;;;;;;186.43;25.80;;;;;;;3.86;72.88;101592.35;1708500;84;20980;-43
2021/03/27 17:56:29;;;;;;;295.33;30.02;;;;;;;3.78;73.08;101592.13;1705622;84;21019;-43
2021/03/27 17:59:08;;;;;;;315.95;26.45;;;;;;;3.80;73.75;101589.63;1708552;82;21094;-44
2021/03/27 18:01:55;;;;;;;269.65;27.30;;;;;;;3.74;74.78;101597.61;1703091;83;21389;-43
2021/03/27 18:04:31;;;;;;;264.63;28.50;;;;;;;3.65;75.42;101596.47;1703127;83;20996;-44
2021/03/27 18:07:11;;;;;;;289.60;30.88;;;;;;;3.56;75.70;101593.23;1703206;83;21627;-42
2021/03/27 18:10:04;;;;;;;363.62;33.50;;;;;;;3.57;75.88;101596.25;1858685;75;27811;-42
2021/03/27 18:13:00;;;;;;;202.60;26.80;;;;;;;3.49;75.95;101588.34;1819659;78;21026;-42
2021/03/27 18:15:52;;;;;;;267.85;28.15;;;;;;;3.47;76.06;101598.95;1819916;78;21566;-43
2021/03/27 18:18:21;;;;;;;359.35;30.70;;;;;;;3.43;76.48;101604.41;1819049;78;20935;-42
2021/03/27 18:21:18;;;;;;;343.23;29.77;;;;;;;3.42;76.86;101605.64;1819779;78;21010;-42
2021/03/27 18:23:58;;;;;;;;;;;;;;;3.41;77.05;101602.22;1822532;78;20915;-43
2021/03/27 18:26:55;;;;;;;179.18;22.85;;;;;;;3.40;77.12;101600.88;1819782;78;20172;-44
2021/03/27 18:29:56;;;;;;;385.30;32.93;;;;;;;3.40;77.05;101603.44;1819733;78;21410;-43
2021/03/27 18:32:49;;;;;;;1519.23;103.65;;;;;;;3.36;76.67;101608.02;1819679;78;21065;-42
2021/03/27 18:35:27;;;;;;;493.37;37.45;;;;;;;3.32;76.68;101611.31;1819735;78;20933;-42
2021/03/27 18:38:14;;;;;;;568.15;42.98;;;;;;;3.27;76.77;101607.33;1819693;78;20923;-43
2021/03/27 18:40:55;;;;;;;1417.70;105.83;;;;;;;3.22;76.82;101610.17;1819779;78;21069;-43
2021/03/27 18:43:34;;;;;;;1876.98;128.27;;;;;;;3.17;77.27;101608.73;1819790;78;21359;-43
2021/03/27 18:46:22;;;;;;;887.85;65.60;;;;;;;3.16;77.39;101608.28;1819678;78;21006;-41
2021/03/27 18:48:54;;;;;;;1999.90;305.90;;;;;;;3.14;77.55;101609.50;1819658;78;20986;-43
2021/03/27 18:51:25;;;;;;;1023.40;67.55;;;;;;;3.12;77.61;101609.02;1819351;78;21018;-44
2021/03/27 18:54:01;;;;;;;695.10;49.88;;;;;;;3.08;77.68;101615.72;1819756;78;20978;-42
2021/03/27 18:56:34;;;;;;;285.22;27.45;;;;;;;3.07;77.87;101619.09;1819275;78;21361;-42
2021/03/27 18:59:24;;;;;;;457.58;35.40;;;;;;;3.08;77.99;101621.26;1815739;78;21060;-42
2021/03/27 19:02:01;;;;;;;1374.38;100.97;;;;;;;3.04;78.01;101618.16;1787452;80;20998;-43
2021/03/27 19:04:40;;;;;;;662.77;48.15;;;;;;;2.98;78.15;101622.66;1787436;80;21073;-42
2021/03/27 19:07:30;;;;;;;458.65;45.33;;;;;;;2.91;78.14;101629.69;1787518;80;20982;-43
2021/03/27 19:10:02;;;;;;;476.73;44.95;;;;;;;2.81;78.10;101630.65;1790641;79;22288;-43
2021/03/27 19:12:38;;;;;;;359.32;39.10;;;;;;;2.70;78.50;101634.13;1790773;80;21037;-43
2021/03/27 19:15:26;;;;;;;163.35;24.47;;;;;;;2.61;79.04;101632.56;1790770;80;20966;-42
2021/03/27 19:18:18;;;;;;;177.53;31.00;;;;;;;2.50;79.51;101632.20;1790737;80;21100;-43
2021/03/27 19:20:53;;;;;;;174.95;34.45;;;;;;;2.36;79.87;101629.17;1790369;80;22242;-42